Time;durP1;ratioP1;P1;durP2;ratioP2;P2;SDS_P1;SDS_P2;PMS_P1;PMS_P2;Temp;Humidity;BMP_temperature;BMP_pressure;BME280_temperature;BME280_humidity;BME280_pressure;Samples;Min_cycle;Max_cycle;Signal;HPM_P1;HPM_P2
2022/10/30 00:00:23;;;;;;;17.75;6.60;;;15.50;99.90;;;;;;4989760;28;20026;-61
2022/10/30 00:02:49;;;;;;;18.95;7.38;;;15.50;99.90;;;;;;4996364;28;20022;-61
2022/10/30 00:05:15;;;;;;;22.38;7.40;;;15.50;99.90;;;;;;4986934;28;20027;-60
2022/10/30 00:07:41;;;;;;;13.38;6.95;;;15.50;99.90;;;;;;4984082;28;20496;-63
2022/10/30 00:10:07;;;;;;;22.40;8.25;;;15.50;99.90;;;;;;4988750;28;20123;-63
2022/10/30 00:12:33;;;;;;;18.95;6.80;;;15.40;99.90;;;;;;4983998;28;20036;-63
2022/10/30 00:14:58;;;;;;;37.35;8.23;;;15.40;99.90;;;;;;5003399;28;20443;-61
2022/10/30 00:17:24;;;;;;;25.90;7.53;;;15.40;99.90;;;;;;4985106;28;20038;-62
2022/10/30 00:19:49;;;;;;;21.70;8.45;;;15.30;99.90;;;;;;4990119;28;20046;-62
2022/10/30 00:22:15;;;;;;;29.35;8.23;;;15.30;99.90;;;;;;4987130;28;20027;-61
2022/10/30 00:24:41;;;;;;;25.20;8.23;;;15.30;99.90;;;;;;4988792;28;20072;-61
2022/10/30 00:27:06;;;;;;;27.20;8.13;;;15.30;99.90;;;;;;4986967;28;20112;-60
2022/10/30 00:29:32;;;;;;;24.20;8.18;;;15.30;99.90;;;;;;4992225;28;20087;-60
2022/10/30 00:31:57;;;;;;;16.65;8.00;;;15.30;99.90;;;;;;4985355;28;20073;-61
2022/10/30 00:34:23;;;;;;;23.52;8.52;;;15.30;99.90;;;;;;4986516;28;20089;-60
2022/10/30 00:36:48;;;;;;;26.40;9.30;;;15.20;99.90;;;;;;4989028;28;20939;-59
2022/10/30 00:39:14;;;;;;;26.23;8.75;;;15.20;99.90;;;;;;4989326;28;20027;-60
2022/10/30 00:41:40;;;;;;;21.85;9.20;;;15.20;99.90;;;;;;4988017;28;20045;-62
2022/10/30 00:44:43;;;;;;;24.42;8.65;;;15.20;99.90;;;;;;4995474;28;20120;-61
2022/10/30 00:47:30;;;;;;;16.73;7.80;;;15.20;99.90;;;;;;4987059;28;20076;-63
2022/10/30 00:50:08;;;;;;;14.65;8.38;;;15.20;99.90;;;;;;4979987;28;20199;-61
2022/10/30 00:52:39;;;;;;;26.35;7.75;;;15.10;99.90;;;;;;4993304;28;20033;-59
2022/10/30 00:55:12;;;;;;;21.98;8.20;;;15.10;99.90;;;;;;4987023;28;20026;-61
2022/10/30 00:57:39;;;;;;;21.38;8.10;;;15.20;99.90;;;;;;4987262;28;20026;-62
2022/10/30 01:00:07;;;;;;;28.65;8.73;;;15.10;99.90;;;;;;4987369;28;20027;-62
2022/10/30 01:02:32;;;;;;;19.20;8.43;;;15.00;99.90;;;;;;4992934;28;20114;-60
2022/10/30 01:04:59;;;;;;;26.48;8.15;;;15.00;99.90;;;;;;4995161;28;20117;-61
2022/10/30 01:07:25;;;;;;;35.35;9.05;;;14.90;99.90;;;;;;4991254;28;20485;-61
2022/10/30 01:09:51;;;;;;;22.40;8.30;;;14.90;99.90;;;;;;4985173;28;20114;-63
2022/10/30 01:12:16;;;;;;;21.42;8.55;;;14.80;99.90;;;;;;4981706;28;20560;-62
2022/10/30 01:14:50;;;;;;;40.47;8.25;;;14.80;99.90;;;;;;4989266;28;20037;-62
2022/10/30 01:17:28;;;;;;;31.85;9.55;;;14.80;99.90;;;;;;4987974;28;20447;-63
2022/10/30 01:20:12;;;;;;;19.85;8.98;;;14.70;99.90;;;;;;4986742;28;20179;-62
2022/10/30 01:23:12;;;;;;;31.27;9.88;;;14.60;99.90;;;;;;4993739;28;20076;-63
2022/10/30 01:25:48;;;;;;;22.98;9.00;;;14.60;99.90;;;;;;4990012;28;20038;-62
2022/10/30 01:28:35;;;;;;;24.95;8.95;;;14.60;99.90;;;;;;4987996;28;20031;-61
2022/10/30 01:31:06;;;;;;;25.73;8.05;;;14.60;99.90;;;;;;4989236;28;20381;-63
2022/10/30 01:34:03;;;;;;;23.42;7.65;;;14.70;99.90;;;;;;4991533;28;20042;-61
2022/10/30 01:36:50;;;;;;;18.90;7.88;;;14.70;99.90;;;;;;4994735;28;20030;-62
2022/10/30 01:39:26;;;;;;;19.52;8.52;;;14.60;99.90;;;;;;4986479;28;20129;-62
2022/10/30 01:41:52;;;;;;;22.10;8.05;;;14.50;99.90;;;;;;4994179;28;20022;-62
2022/10/30 01:44:31;;;;;;;19.83;7.80;;;14.40;99.90;;;;;;5018353;23;20501;-61
2022/10/30 01:47:07;;;;;;;23.88;9.45;;;14.40;99.90;;;;;;5019785;28;20104;-58
2022/10/30 01:49:59;;;;;;;23.75;8.27;;;14.30;99.90;;;;;;5025357;28;20032;-61
2022/10/30 01:52:43;;;;;;;26.98;7.80;;;14.30;99.90;;;;;;5024645;28;20075;-61
2022/10/30 01:55:17;;;;;;;23.80;7.28;;;14.20;99.90;;;;;;5026556;28;20041;-60
2022/10/30 01:57:45;;;;;;;;;;;14.10;99.90;;;;;;5027986;28;20068;-61
2022/10/30 02:00:14;;;;;;;23.50;9.18;;;14.00;99.90;;;;;;5018831;28;19909;-61
2022/10/30 02:02:41;;;;;;;24.25;8.07;;;13.90;99.90;;;;;;5025344;28;20029;-61
2022/10/30 02:05:09;;;;;;;20.42;8.05;;;13.80;99.90;;;;;;5023935;28;20052;-61
2022/10/30 02:07:35;;;;;;;23.05;8.80;;;13.80;99.90;;;;;;5027717;28;20412;-60
2022/10/30 02:10:01;;;;;;;27.48;8.02;;;13.70;99.90;;;;;;5028366;28;20160;-59
2022/10/30 02:12:27;;;;;;;22.95;8.95;;;13.70;99.90;;;;;;5027466;28;20064;-60
2022/10/30 02:14:57;;;;;;;23.80;8.40;;;13.70;99.90;;;;;;5028779;28;20045;-60
2022/10/30 02:17:23;;;;;;;23.38;7.97;;;13.70;99.90;;;;;;5025687;28;20052;-60
2022/10/30 02:19:49;;;;;;;33.00;7.72;;;13.70;99.90;;;;;;5021686;28;20018;-59
2022/10/30 02:22:16;;;;;;;23.00;7.75;;;13.70;99.90;;;;;;5026254;28;20036;-58
2022/10/30 02:24:42;;;;;;;21.85;7.50;;;13.70;99.90;;;;;;5023583;28;20060;-60
2022/10/30 02:27:08;;;;;;;20.95;7.40;;;13.70;99.90;;;;;;5026367;28;20040;-60
2022/10/30 02:29:33;;;;;;;20.60;8.50;;;13.50;99.90;;;;;;5023052;28;20017;-61
2022/10/30 02:31:59;;;;;;;18.40;8.10;;;13.40;99.90;;;;;;5023112;28;20116;-61
2022/10/30 02:34:24;;;;;;;19.52;8.05;;;13.40;99.90;;;;;;5026777;28;20503;-59
2022/10/30 02:36:50;;;;;;;18.67;7.97;;;13.30;99.90;;;;;;5026211;28;20395;-59
2022/10/30 02:39:16;;;;;;;27.40;9.80;;;13.20;99.90;;;;;;5038284;28;20062;-58
2022/10/30 02:41:42;;;;;;;24.23;8.50;;;13.00;99.90;;;;;;5025778;28;20041;-61
2022/10/30 02:44:08;;;;;;;33.00;9.18;;;12.90;99.90;;;;;;5023895;28;20059;-60
2022/10/30 02:46:33;;;;;;;21.48;8.73;;;13.00;99.90;;;;;;5024838;28;20022;-60
2022/10/30 02:48:59;;;;;;;25.17;8.88;;;13.10;99.90;;;;;;5025688;28;20072;-60
2022/10/30 02:51:25;;;;;;;25.88;8.25;;;13.10;99.90;;;;;;5026188;28;20495;-60
2022/10/30 02:53:50;;;;;;;24.60;9.15;;;13.10;99.90;;;;;;5025999;28;20025;-60
2022/10/30 02:56:16;;;;;;;21.67;8.75;;;13.10;99.90;;;;;;5022774;28;20507;-59
2022/10/30 02:58:42;;;;;;;22.80;8.13;;;13.00;99.90;;;;;;5019415;28;20033;-60
2022/10/30 03:01:13;;;;;;;21.50;8.80;;;12.90;99.90;;;;;;5026459;28;20029;-58
2022/10/30 03:03:40;;;;;;;23.35;8.88;;;12.80;99.90;;;;;;5019190;28;20033;-58
2022/10/30 03:06:08;;;;;;;25.70;8.80;;;12.70;99.90;;;;;;5026619;28;20044;-60
2022/10/30 03:08:34;;;;;;;19.98;9.02;;;12.80;99.90;;;;;;5016906;28;20083;-60
2022/10/30 03:11:09;;;;;;;19.48;7.75;;;12.80;99.90;;;;;;5022292;28;20041;-59
2022/10/30 03:13:35;;;;;;;35.85;12.02;;;12.80;99.90;;;;;;5019612;28;20818;-59
2022/10/30 03:16:07;;;;;;;24.50;9.05;;;12.80;99.90;;;;;;5021141;28;20030;-59
2022/10/30 03:18:33;;;;;;;28.08;9.63;;;12.70;99.90;;;;;;5023837;28;21599;-59
2022/10/30 03:21:01;;;;;;;24.67;9.68;;;12.70;99.90;;;;;;5025337;28;20419;-59
2022/10/30 03:23:27;;;;;;;27.55;9.10;;;12.50;99.90;;;;;;5020329;28;20491;-60
2022/10/30 03:25:54;;;;;;;32.63;9.60;;;12.50;99.90;;;;;;5020374;28;20116;-60
2022/10/30 03:28:21;;;;;;;26.55;8.40;;;12.60;99.90;;;;;;5019070;28;20029;-58
2022/10/30 03:30:46;;;;;;;23.67;8.60;;;12.60;99.90;;;;;;5022300;28;20450;-60
2022/10/30 03:33:12;;;;;;;19.17;7.93;;;12.60;99.90;;;;;;5021442;28;20034;-59
2022/10/30 03:35:38;;;;;;;26.30;9.18;;;12.50;99.90;;;;;;5023484;28;20383;-59
2022/10/30 03:38:03;;;;;;;24.63;8.90;;;12.50;99.90;;;;;;5017977;28;20548;-60
2022/10/30 03:40:29;;;;;;;22.92;7.95;;;12.60;99.90;;;;;;5023635;28;20032;-58
2022/10/30 03:42:54;;;;;;;20.83;8.75;;;12.50;99.90;;;;;;5020222;28;20041;-58
2022/10/30 03:45:20;;;;;;;26.67;9.35;;;12.50;99.90;;;;;;5018562;28;20065;-59
2022/10/30 03:47:45;;;;;;;18.45;8.75;;;12.50;99.90;;;;;;5024215;28;20029;-59
2022/10/30 03:50:11;;;;;;;23.35;8.63;;;12.40;99.90;;;;;;5023356;28;20446;-60
2022/10/30 03:52:36;;;;;;;17.48;8.20;;;12.50;99.90;;;;;;5025252;28;20052;-59
2022/10/30 03:55:02;;;;;;;17.92;8.15;;;12.50;99.90;;;;;;5025532;28;20722;-59
2022/10/30 03:57:27;;;;;;;18.33;9.05;;;12.40;99.90;;;;;;5019657;28;20675;-58
2022/10/30 03:59:53;;;;;;;20.25;8.25;;;12.30;99.90;;;;;;5023222;28;20037;-59
2022/10/30 04:02:18;;;;;;;24.35;8.60;;;12.30;99.90;;;;;;5025045;28;20021;-60
2022/10/30 04:04:44;;;;;;;32.67;11.77;;;12.30;99.90;;;;;;5026975;28;20056;-59
2022/10/30 04:07:09;;;;;;;22.88;8.43;;;12.30;99.90;;;;;;5023102;28;20494;-61
2022/10/30 04:09:35;;;;;;;30.77;9.07;;;12.30;99.90;;;;;;5027650;28;20021;-60
2022/10/30 04:12:00;;;;;;;15.98;9.07;;;12.30;99.90;;;;;;5025507;28;20040;-59
2022/10/30 04:14:26;;;;;;;21.60;7.97;;;12.20;99.90;;;;;;5021828;28;20032;-59
2022/10/30 04:16:51;;;;;;;22.63;8.40;;;12.20;99.90;;;;;;5026839;28;20318;-59
2022/10/30 04:19:17;;;;;;;34.58;9.13;;;12.20;99.90;;;;;;5023913;28;20037;-60
2022/10/30 04:21:42;;;;;;;20.77;8.57;;;12.10;99.90;;;;;;5024250;28;20080;-58
2022/10/30 04:24:08;;;;;;;30.90;9.00;;;12.10;99.90;;;;;;5024661;28;20039;-60
2022/10/30 04:26:34;;;;;;;19.70;8.07;;;12.00;99.90;;;;;;5024244;28;20029;-59
2022/10/30 04:29:00;;;;;;;21.33;8.40;;;12.00;99.90;;;;;;5024770;28;20029;-59
2022/10/30 04:31:25;;;;;;;19.85;8.82;;;11.90;99.90;;;;;;5025319;28;20033;-60
2022/10/30 04:33:51;;;;;;;17.27;8.18;;;11.90;99.90;;;;;;5024573;28;20044;-59
2022/10/30 04:36:17;;;;;;;17.65;8.60;;;11.90;99.90;;;;;;5016197;28;20447;-59
2022/10/30 04:38:43;;;;;;;22.83;8.95;;;11.80;99.90;;;;;;5024506;28;20025;-60
2022/10/30 04:41:08;;;;;;;24.58;8.55;;;11.70;99.90;;;;;;5021291;28;20625;-58
2022/10/30 04:43:34;;;;;;;17.95;7.93;;;11.70;99.90;;;;;;5017693;28;20510;-59
2022/10/30 04:46:03;;;;;;;20.08;8.23;;;11.80;99.90;;;;;;5025185;28;20033;-59
2022/10/30 04:48:29;;;;;;;18.33;9.18;;;11.80;99.90;;;;;;5023841;28;20021;-59
2022/10/30 04:50:58;;;;;;;21.70;8.90;;;11.70;99.90;;;;;;5021469;28;20037;-60
2022/10/30 04:53:23;;;;;;;28.65;9.25;;;11.60;99.90;;;;;;5023725;28;20037;-60
2022/10/30 04:55:53;;;;;;;21.52;9.50;;;11.60;99.90;;;;;;5025046;28;20029;-60
2022/10/30 04:58:18;;;;;;;25.10;9.45;;;11.70;99.90;;;;;;5023356;28;20060;-58
2022/10/30 05:00:44;;;;;;;23.33;9.00;;;11.80;99.90;;;;;;5026088;28;20393;-60
2022/10/30 05:03:23;;;;;;;25.13;8.27;;;11.60;99.90;;;;;;5026448;28;20026;-59
2022/10/30 05:05:59;;;;;;;21.58;8.25;;;11.70;99.90;;;;;;5024748;28;20025;-60
2022/10/30 05:08:25;;;;;;;22.90;8.52;;;11.70;99.90;;;;;;5019881;28;20083;-57
2022/10/30 05:10:51;;;;;;;20.05;8.68;;;11.70;99.90;;;;;;5023574;28;20045;-59
2022/10/30 05:13:16;;;;;;;35.42;10.05;;;11.70;99.90;;;;;;5028151;28;20025;-60
2022/10/30 05:15:42;;;;;;;20.52;8.65;;;11.60;99.90;;;;;;5030092;28;20029;-59
2022/10/30 05:18:07;;;;;;;23.25;9.15;;;11.60;99.90;;;;;;5026948;28;20557;-60
2022/10/30 05:20:33;;;;;;;31.92;9.35;;;11.50;99.90;;;;;;5024237;28;20022;-61
2022/10/30 05:22:59;;;;;;;20.85;8.63;;;11.60;99.90;;;;;;5027948;28;20105;-61
2022/10/30 05:25:26;;;;;;;33.60;8.98;;;11.60;99.90;;;;;;5026034;28;20086;-60
2022/10/30 05:27:58;;;;;;;20.90;8.57;;;11.60;99.90;;;;;;5027962;28;20483;-61
2022/10/30 05:30:26;;;;;;;20.15;8.43;;;11.70;99.90;;;;;;5025069;28;20156;-60
2022/10/30 05:32:58;;;;;;;18.52;9.60;;;11.60;99.90;;;;;;5026081;28;20026;-61
2022/10/30 05:35:23;;;;;;;26.83;8.77;;;11.60;99.90;;;;;;5027118;28;20026;-61
2022/10/30 05:37:49;;;;;;;19.95;8.45;;;11.40;99.90;;;;;;5025642;28;20033;-61
2022/10/30 05:40:14;;;;;;;28.23;9.13;;;11.40;99.90;;;;;;5021747;28;20034;-60
2022/10/30 05:42:47;;;;;;;20.02;8.48;;;11.30;99.90;;;;;;5023552;28;20025;-60
2022/10/30 05:45:13;;;;;;;18.40;8.02;;;11.30;99.90;;;;;;5018782;28;20476;-61
2022/10/30 05:47:39;;;;;;;25.92;8.77;;;11.40;99.90;;;;;;5019674;28;20037;-61
2022/10/30 05:50:05;;;;;;;25.92;8.93;;;11.50;99.90;;;;;;5019153;28;20087;-61
2022/10/30 05:52:31;;;;;;;37.50;9.73;;;11.50;99.90;;;;;;5021042;28;20100;-61
2022/10/30 05:54:56;;;;;;;21.88;8.30;;;11.50;99.90;;;;;;5015842;28;20021;-60
2022/10/30 05:57:22;;;;;;;30.30;9.35;;;11.50;99.90;;;;;;5020191;28;20061;-61
2022/10/30 05:59:47;;;;;;;21.95;8.88;;;11.50;99.90;;;;;;5021449;28;20588;-60
2022/10/30 06:02:13;;;;;;;23.33;9.65;;;11.40;99.90;;;;;;5023349;28;20410;-60
2022/10/30 06:04:38;;;;;;;20.10;8.60;;;11.40;99.90;;;;;;5020001;28;20029;-60
2022/10/30 06:07:04;;;;;;;23.58;9.77;;;11.40;99.90;;;;;;5023128;28;20052;-60
2022/10/30 06:09:29;;;;;;;21.45;8.38;;;11.50;99.90;;;;;;5024318;28;20053;-60
2022/10/30 06:11:55;;;;;;;23.13;8.35;;;11.50;99.90;;;;;;5019432;28;20026;-59
2022/10/30 06:14:21;;;;;;;20.67;8.18;;;11.50;99.90;;;;;;5018760;28;20029;-60
2022/10/30 06:16:46;;;;;;;17.40;8.48;;;11.40;99.90;;;;;;5024452;28;20049;-61
2022/10/30 06:19:12;;;;;;;23.85;8.18;;;11.40;99.90;;;;;;5017775;28;20038;-60
2022/10/30 06:21:37;;;;;;;24.60;8.73;;;11.40;99.90;;;;;;5024778;28;20026;-60
2022/10/30 06:24:03;;;;;;;23.88;8.68;;;11.30;99.90;;;;;;5023316;28;20037;-59
2022/10/30 06:26:29;;;;;;;22.88;8.63;;;11.40;99.90;;;;;;5021534;28;20026;-61
2022/10/30 06:28:55;;;;;;;22.27;9.48;;;11.40;99.90;;;;;;5015233;28;20037;-60
2022/10/30 06:31:20;;;;;;;36.80;9.13;;;11.50;99.90;;;;;;5025793;28;20036;-60
2022/10/30 06:33:46;;;;;;;22.25;9.73;;;11.50;99.90;;;;;;5028924;28;20433;-60
2022/10/30 06:36:11;;;;;;;21.42;9.68;;;11.50;99.90;;;;;;5019470;28;20033;-59
2022/10/30 06:38:37;;;;;;;27.77;9.27;;;11.50;99.90;;;;;;5023042;28;20021;-59
2022/10/30 06:41:03;;;;;;;28.58;8.82;;;11.60;99.90;;;;;;5022952;28;20026;-60
2022/10/30 06:43:28;;;;;;;22.42;9.27;;;11.60;99.90;;;;;;5016125;28;20063;-60
2022/10/30 06:45:55;;;;;;;26.00;8.15;;;11.60;99.90;;;;;;5025647;28;20112;-62
2022/10/30 06:48:22;;;;;;;19.35;9.20;;;11.60;99.90;;;;;;5026301;28;20033;-58
2022/10/30 06:50:53;;;;;;;19.20;8.50;;;11.50;99.90;;;;;;5024292;28;20025;-57
2022/10/30 06:53:18;;;;;;;21.85;9.75;;;11.50;99.90;;;;;;5026986;28;20387;-59
2022/10/30 06:55:44;;;;;;;18.55;8.18;;;11.50;99.90;;;;;;5020341;28;20033;-59
2022/10/30 06:58:09;;;;;;;26.35;8.80;;;11.40;99.90;;;;;;5023252;28;20033;-60
2022/10/30 07:00:35;;;;;;;18.75;8.88;;;11.50;99.90;;;;;;5024783;28;20048;-63
2022/10/30 07:03:03;;;;;;;26.23;9.52;;;11.40;99.90;;;;;;5027166;28;20033;-59
2022/10/30 07:05:28;;;;;;;25.30;9.68;;;11.50;99.90;;;;;;5028073;28;20091;-60
2022/10/30 07:07:57;;;;;;;24.02;10.13;;;11.50;99.90;;;;;;5019497;28;20492;-62
2022/10/30 07:10:23;;;;;;;20.95;10.18;;;11.50;99.90;;;;;;5018792;28;20025;-61
2022/10/30 07:12:55;;;;;;;20.50;9.50;;;11.50;99.90;;;;;;5022818;28;20024;-58
2022/10/30 07:15:22;;;;;;;28.05;9.57;;;11.60;99.90;;;;;;5028299;28;20029;-62
2022/10/30 07:17:52;;;;;;;31.67;8.85;;;11.70;99.90;;;;;;5027968;28;20032;-58
2022/10/30 07:20:17;;;;;;;17.30;8.43;;;11.70;99.90;;;;;;5025315;28;20022;-59
2022/10/30 07:22:43;;;;;;;33.75;9.43;;;11.80;99.90;;;;;;5025505;28;20043;-59
2022/10/30 07:25:08;;;;;;;25.15;8.50;;;11.80;99.90;;;;;;5023035;28;21015;-60
2022/10/30 07:27:42;;;;;;;25.10;11.38;;;11.80;99.90;;;;;;5022705;28;20030;-57
2022/10/30 07:30:08;;;;;;;19.23;8.52;;;11.90;99.90;;;;;;5018644;28;20033;-59
2022/10/30 07:32:34;;;;;;;22.20;9.23;;;12.00;99.90;;;;;;5016925;28;20035;-56
2022/10/30 07:34:59;;;;;;;24.42;10.48;;;12.00;99.90;;;;;;5015343;28;20022;-59
2022/10/30 07:37:24;;;;;;;22.33;9.68;;;12.10;99.90;;;;;;5027293;28;20033;-56
2022/10/30 07:39:50;;;;;;;23.77;10.23;;;12.10;99.90;;;;;;5022696;28;20025;-58
2022/10/30 07:42:15;;;;;;;19.88;8.45;;;12.10;99.90;;;;;;5027347;28;20096;-59
2022/10/30 07:44:41;;;;;;;23.65;9.43;;;12.10;99.90;;;;;;5036426;22;20037;-57
2022/10/30 07:47:06;;;;;;;22.80;8.88;;;12.20;99.90;;;;;;5009242;28;20037;-56
2022/10/30 07:49:32;;;;;;;23.63;9.75;;;12.20;99.90;;;;;;4997345;28;20033;-56
2022/10/30 07:51:57;;;;;;;27.58;9.85;;;12.30;99.90;;;;;;5003031;28;20459;-52
2022/10/30 07:54:23;;;;;;;26.30;9.57;;;12.40;99.90;;;;;;5004382;28;20048;-53
2022/10/30 07:56:49;;;;;;;21.08;8.10;;;12.50;99.90;;;;;;5006088;28;20036;-57
2022/10/30 07:59:14;;;;;;;25.35;10.40;;;12.60;99.90;;;;;;5006604;28;20035;-56
2022/10/30 08:01:39;;;;;;;24.83;11.13;;;12.70;99.90;;;;;;5003153;28;20034;-56
2022/10/30 08:04:05;;;;;;;28.40;9.60;;;12.80;99.90;;;;;;5016099;28;20022;-57
2022/10/30 08:06:31;;;;;;;28.20;9.88;;;12.90;99.90;;;;;;5012939;28;20029;-57
2022/10/30 08:08:56;;;;;;;26.77;9.90;;;13.00;99.90;;;;;;5019521;28;20033;-58
2022/10/30 08:11:22;;;;;;;28.48;10.02;;;13.10;99.90;;;;;;5013804;28;20021;-58
2022/10/30 08:13:47;;;;;;;21.92;9.68;;;13.20;99.90;;;;;;4997983;28;20036;-59
2022/10/30 08:16:13;;;;;;;34.88;10.13;;;13.30;99.90;;;;;;5018787;28;20279;-58
2022/10/30 08:18:41;;;;;;;21.70;9.77;;;13.50;99.90;;;;;;5011951;28;20026;-55
2022/10/30 08:21:06;;;;;;;17.70;8.82;;;13.60;99.90;;;;;;5000120;28;20026;-54
2022/10/30 08:23:32;;;;;;;26.63;8.90;;;13.70;99.90;;;;;;5002114;28;20099;-59
2022/10/30 08:26:01;;;;;;;31.20;9.55;;;13.90;99.90;;;;;;5008134;28;20041;-55
2022/10/30 08:28:27;;;;;;;30.10;10.20;;;14.00;99.90;;;;;;5008859;28;20499;-59
2022/10/30 08:30:52;;;;;;;18.40;8.23;;;14.10;99.90;;;;;;5006622;28;20029;-57
2022/10/30 08:33:19;;;;;;;21.13;8.10;;;14.20;99.90;;;;;;5007584;28;20034;-58
2022/10/30 08:35:53;;;;;;;19.75;7.80;;;14.30;99.90;;;;;;5009827;28;20778;-56
2022/10/30 08:38:19;;;;;;;19.63;8.77;;;14.30;99.90;;;;;;5014421;28;20037;-54
2022/10/30 08:40:44;;;;;;;24.90;7.63;;;14.40;99.90;;;;;;5015352;28;20026;-55
2022/10/30 08:43:10;;;;;;;29.13;8.77;;;14.50;99.90;;;;;;5004331;28;20033;-59
2022/10/30 08:45:36;;;;;;;23.92;8.13;;;14.50;99.90;;;;;;5007526;28;20034;-55
2022/10/30 08:48:03;;;;;;;20.48;7.70;;;14.60;99.90;;;;;;5007962;28;20408;-59
2022/10/30 08:50:30;;;;;;;25.55;7.82;;;14.60;99.90;;;;;;5016587;28;20036;-55
2022/10/30 08:53:00;;;;;;;18.48;7.63;;;14.60;99.90;;;;;;4992587;28;20065;-60
2022/10/30 08:55:26;;;;;;;20.73;7.20;;;14.70;99.90;;;;;;5014169;28;20037;-59
2022/10/30 08:57:51;;;;;;;23.48;9.07;;;14.80;99.90;;;;;;5012927;28;20033;-58
2022/10/30 09:00:17;;;;;;;25.42;8.75;;;14.80;99.90;;;;;;5010740;28;20045;-57
2022/10/30 09:02:44;;;;;;;28.95;8.43;;;14.90;99.90;;;;;;5013207;28;20034;-54
2022/10/30 09:05:10;;;;;;;20.42;8.52;;;15.00;99.90;;;;;;5016217;28;20154;-56
2022/10/30 09:07:35;;;;;;;17.80;6.93;;;15.00;99.90;;;;;;5007397;28;20112;-56
2022/10/30 09:10:01;;;;;;;17.58;6.95;;;15.10;99.90;;;;;;5013036;28;20033;-58
2022/10/30 09:12:27;;;;;;;21.58;7.40;;;15.20;99.90;;;;;;5006229;28;20030;-56
2022/10/30 09:14:52;;;;;;;22.50;6.88;;;15.30;99.90;;;;;;5018259;28;20032;-55
2022/10/30 09:17:18;;;;;;;21.55;7.45;;;15.40;99.90;;;;;;5009002;28;20022;-55
2022/10/30 09:19:43;;;;;;;18.48;7.13;;;15.40;99.90;;;;;;5007657;28;20041;-59
2022/10/30 09:22:09;;;;;;;13.82;7.28;;;15.50;99.90;;;;;;5007689;28;20431;-57
2022/10/30 09:24:34;;;;;;;19.60;7.95;;;15.60;99.90;;;;;;5018075;28;20036;-60
2022/10/30 09:27:00;;;;;;;32.92;8.32;;;15.70;99.90;;;;;;5010421;28;20355;-57
2022/10/30 09:29:25;;;;;;;22.85;7.97;;;15.90;99.90;;;;;;5012147;28;20037;-57
2022/10/30 09:31:51;;;;;;;22.80;7.25;;;16.00;99.90;;;;;;4991370;28;20033;-57
2022/10/30 09:34:17;;;;;;;15.32;7.65;;;16.10;99.90;;;;;;4982497;28;20034;-58
2022/10/30 09:36:42;;;;;;;22.40;7.80;;;16.20;99.90;;;;;;5005843;28;20045;-57
2022/10/30 09:39:09;;;;;;;20.30;8.88;;;16.40;99.90;;;;;;4996729;28;20177;-58
2022/10/30 09:41:44;;;;;;;31.83;7.43;;;16.50;99.90;;;;;;5006724;28;20108;-57
2022/10/30 09:44:31;;;;;;;11.23;6.20;;;16.60;99.90;;;;;;5007880;28;20022;-53
2022/10/30 09:47:22;;;;;;;22.95;6.30;;;16.70;99.90;;;;;;5009286;28;20045;-56
2022/10/30 09:50:21;;;;;;;16.25;6.40;;;16.90;99.90;;;;;;5006162;28;20065;-55
2022/10/30 09:53:05;;;;;;;18.73;6.80;;;17.00;99.90;;;;;;4988402;28;20034;-60
2022/10/30 09:55:59;;;;;;;27.17;6.18;;;17.10;99.90;;;;;;5000739;28;20030;-57
2022/10/30 09:58:24;;;;;;;18.20;6.78;;;17.20;99.90;;;;;;5004086;28;20456;-57
2022/10/30 10:01:11;;;;;;;20.33;6.60;;;17.30;99.90;;;;;;4996325;28;20064;-54
2022/10/30 10:04:18;;;;;;;13.15;5.55;;;17.40;99.90;;;;;;5003257;28;20030;-57
2022/10/30 10:06:47;;;;;;;16.08;5.65;;;17.50;99.90;;;;;;5003885;28;20021;-57
2022/10/30 10:09:22;;;;;;;15.95;6.53;;;17.60;99.90;;;;;;5007034;28;20025;-57
2022/10/30 10:11:53;;;;;;;15.98;6.43;;;17.70;99.90;;;;;;5004891;28;20026;-54
2022/10/30 10:14:27;;;;;;;12.63;5.78;;;17.80;99.90;;;;;;4998439;28;20022;-57
2022/10/30 10:16:55;;;;;;;20.75;6.10;;;17.90;99.90;;;;;;5001915;28;20033;-56
2022/10/30 10:19:27;;;;;;;13.32;5.75;;;18.00;99.90;;;;;;5003579;28;20033;-52
2022/10/30 10:21:56;;;;;;;25.70;7.07;;;18.10;99.90;;;;;;5001155;28;20037;-55
2022/10/30 10:24:43;;;;;;;16.75;6.38;;;18.20;99.90;;;;;;5009331;28;20026;-57
2022/10/30 10:27:44;;;;;;;15.93;6.43;;;18.20;99.90;;;;;;5008901;28;20024;-55
2022/10/30 10:30:16;;;;;;;21.60;6.38;;;18.40;99.90;;;;;;4997125;28;20037;-56
2022/10/30 10:33:19;;;;;;;18.65;6.05;;;18.50;99.90;;;;;;5001179;28;20034;-56
2022/10/30 10:36:02;;;;;;;18.92;6.63;;;18.70;99.90;;;;;;5004661;28;20400;-56
2022/10/30 10:38:34;;;;;;;16.55;5.95;;;18.90;99.90;;;;;;5000221;28;20076;-56
2022/10/30 10:41:20;;;;;;;14.18;5.47;;;19.00;99.90;;;;;;5001651;28;20042;-58
2022/10/30 10:43:58;;;;;;;17.63;5.75;;;19.10;99.90;;;;;;5008321;28;20033;-56
2022/10/30 10:46:31;;;;;;;14.88;5.40;;;19.20;99.90;;;;;;5009964;28;20021;-56
2022/10/30 10:49:24;;;;;;;12.60;4.55;;;19.30;99.90;;;;;;5005203;28;20150;-59
2022/10/30 10:52:02;;;;;;;18.27;5.63;;;19.50;99.90;;;;;;5006084;28;20038;-56
2022/10/30 10:54:42;;;;;;;17.63;4.90;;;19.50;99.90;;;;;;5011263;28;20026;-56
2022/10/30 10:57:16;;;;;;;12.90;5.53;;;19.70;99.90;;;;;;5008693;28;20036;-56
2022/10/30 10:59:47;;;;;;;16.20;6.00;;;19.90;99.90;;;;;;5019307;28;20033;-57
2022/10/30 11:02:39;;;;;;;13.70;4.97;;;19.90;99.90;;;;;;5010974;28;20087;-55
2022/10/30 11:05:35;;;;;;;19.13;5.18;;;20.10;99.90;;;;;;5005183;28;20182;-56
2022/10/30 11:08:18;;;;;;;18.35;5.75;;;20.20;99.90;;;;;;5002773;28;20041;-57
2022/10/30 11:10:47;;;;;;;17.17;4.47;;;20.30;99.90;;;;;;5018256;28;20021;-55
2022/10/30 11:13:13;;;;;;;17.55;5.47;;;20.40;99.90;;;;;;5006059;28;20117;-55
2022/10/30 11:15:45;;;;;;;17.88;4.75;;;20.50;99.90;;;;;;5006109;28;20105;-53
2022/10/30 11:18:10;;;;;;;13.38;4.47;;;20.60;99.90;;;;;;5013300;28;20030;-56
2022/10/30 11:20:58;;;;;;;18.30;5.05;;;20.70;99.90;;;;;;5004269;28;20033;-56
2022/10/30 11:23:40;;;;;;;14.25;4.85;;;20.80;99.90;;;;;;5007262;28;20057;-57
2022/10/30 11:26:32;;;;;;;16.23;5.03;;;20.90;99.90;;;;;;5006517;28;20072;-57
2022/10/30 11:29:04;;;;;;;16.13;4.55;;;21.00;99.90;;;;;;5012414;28;20084;-58
2022/10/30 11:31:36;;;;;;;22.50;5.50;;;21.20;99.90;;;;;;5016305;28;20025;-56
2022/10/30 11:34:14;;;;;;;19.30;4.47;;;21.40;99.90;;;;;;5029021;28;20034;-57
2022/10/30 11:36:39;;;;;;;18.25;5.28;;;21.40;99.90;;;;;;5010768;28;20030;-55
2022/10/30 11:39:29;;;;;;;12.63;4.93;;;21.20;99.90;;;;;;5009957;28;20400;-55
2022/10/30 11:42:09;;;;;;;14.27;4.30;;;21.40;99.90;;;;;;5011642;28;20026;-58
2022/10/30 11:44:48;;;;;;;20.23;4.05;;;21.60;99.90;;;;;;5029090;28;20033;-58
2022/10/30 11:47:16;;;;;;;14.13;4.07;;;21.80;99.90;;;;;;5021670;28;20113;-58
2022/10/30 11:49:48;;;;;;;14.65;4.45;;;21.90;99.90;;;;;;5016587;28;20455;-59
2022/10/30 11:52:17;;;;;;;11.60;4.35;;;22.10;99.90;;;;;;5002337;28;20022;-56
2022/10/30 11:54:47;;;;;;;16.63;4.32;;;22.20;99.90;;;;;;5016810;28;20492;-57
2022/10/30 11:57:26;;;;;;;16.63;4.70;;;22.30;99.90;;;;;;5015936;28;20029;-57
2022/10/30 11:59:53;;;;;;;20.58;4.32;;;22.20;99.90;;;;;;5014969;28;20014;-57
2022/10/30 12:02:27;;;;;;;12.15;4.35;;;22.10;99.90;;;;;;5021589;28;20018;-54
2022/10/30 12:04:54;;;;;;;22.65;4.43;;;22.10;99.90;;;;;;5028233;28;20076;-56
2022/10/30 12:07:22;;;;;;;18.65;4.88;;;22.10;99.90;;;;;;5008568;28;20028;-57
2022/10/30 12:09:48;;;;;;;13.85;4.45;;;22.10;99.90;;;;;;5011051;28;20026;-59
2022/10/30 12:12:38;;;;;;;14.38;4.10;;;22.10;99.90;;;;;;5021680;28;20464;-58
2022/10/30 12:15:12;;;;;;;15.15;4.07;;;22.00;99.90;;;;;;5028958;28;20395;-57
2022/10/30 12:17:38;;;;;;;9.32;3.47;;;22.00;99.90;;;;;;5019931;28;20105;-55
2022/10/30 12:20:05;;;;;;;19.42;5.22;;;22.10;99.90;;;;;;5015982;28;20034;-58
2022/10/30 12:22:32;;;;;;;21.75;5.63;;;22.10;99.90;;;;;;5006772;28;20049;-57
2022/10/30 12:25:02;;;;;;;15.75;3.97;;;22.20;99.90;;;;;;5025431;28;20103;-58
2022/10/30 12:27:30;;;;;;;11.98;4.20;;;22.30;99.90;;;;;;5025111;28;20021;-58
2022/10/30 12:30:17;;;;;;;15.77;4.47;;;22.40;99.90;;;;;;5020509;28;20385;-56
2022/10/30 12:32:48;;;;;;;11.05;3.63;;;22.40;99.90;;;;;;5012883;28;20051;-56
2022/10/30 12:35:38;;;;;;;16.60;4.20;;;22.30;99.90;;;;;;5014467;28;20448;-57
2022/10/30 12:38:16;;;;;;;10.07;3.55;;;22.20;99.90;;;;;;5004831;28;20091;-57
2022/10/30 12:40:56;;;;;;;10.55;3.58;;;22.20;99.90;;;;;;5000620;28;20046;-57
2022/10/30 12:43:31;;;;;;;12.90;4.15;;;22.20;99.90;;;;;;5008367;28;20021;-58
2022/10/30 12:46:24;;;;;;;11.57;3.55;;;22.20;99.90;;;;;;4993135;28;20034;-55
2022/10/30 12:48:56;;;;;;;14.85;4.13;;;22.20;99.90;;;;;;4993077;28;20042;-52